sensor_id;sensor_type;location;lat;lon;timestamp;temperature;humidity
2993;DHT22;1506;48.932;9.478;2023-02-22T01:28:03;7.50;99.90
2993;DHT22;1506;48.932;9.478;2023-02-22T01:30:33;2.50;99.90
2993;DHT22;1506;48.932;9.478;2023-02-22T01:33:04;2.40;99.90
2993;DHT22;1506;48.932;9.478;2023-02-22T01:35:35;2.50;99.90
2993;DHT22;1506;48.932;9.478;2023-02-22T01:38:03;2.50;99.90
2993;DHT22;1506;48.932;9.478;2023-02-22T01:40:33;2.50;99.90
2993;DHT22;1506;48.932;9.478;2023-02-22T01:43:05;2.50;99.90
2993;DHT22;1506;48.932;9.478;2023-02-22T01:48:52;2.60;99.90
2993;DHT22;1506;48.932;9.478;2023-02-22T01:51:36;2.70;99.90
2993;DHT22;1506;48.932;9.478;2023-02-22T01:57:14;2.30;99.90
2993;DHT22;1506;48.932;9.478;2023-02-22T01:59:53;2.20;99.90
2993;DHT22;1506;48.932;9.478;2023-02-22T02:02:22;2.20;99.90
2993;DHT22;1506;48.932;9.478;2023-02-22T02:04:53;2.10;99.90
2993;DHT22;1506;48.932;9.478;2023-02-22T02:07:23;2.10;99.90
2993;DHT22;1506;48.932;9.478;2023-02-22T02:10:00;2.10;99.90
2993;DHT22;1506;48.932;9.478;2023-02-22T02:12:31;2.30;99.90
2993;DHT22;1506;48.932;9.478;2023-02-22T02:15:27;2.40;99.90
2993;DHT22;1506;48.932;9.478;2023-02-22T02:18:02;2.40;99.90
2993;DHT22;1506;48.932;9.478;2023-02-22T02:27:19;2.30;99.90
2993;DHT22;1506;48.932;9.478;2023-02-22T02:33:05;2.20;99.90
2993;DHT22;1506;48.932;9.478;2023-02-22T02:35:56;2.10;99.90
2993;DHT22;1506;48.932;9.478;2023-02-22T02:41:38;2.00;99.90
2993;DHT22;1506;48.932;9.478;2023-02-22T02:44:14;2.00;99.90
2993;DHT22;1506;48.932;9.478;2023-02-22T02:47:01;2.00;99.90
2993;DHT22;1506;48.932;9.478;2023-02-22T02:49:45;1.90;99.90
2993;DHT22;1506;48.932;9.478;2023-02-22T02:52:18;1.90;99.90
2993;DHT22;1506;48.932;9.478;2023-02-22T02:54:47;1.70;99.90
2993;DHT22;1506;48.932;9.478;2023-02-22T02:57:15;1.80;99.90
2993;DHT22;1506;48.932;9.478;2023-02-22T02:59:42;1.70;99.90
2993;DHT22;1506;48.932;9.478;2023-02-22T03:08:34;1.40;99.90
2993;DHT22;1506;48.932;9.478;2023-02-22T03:11:13;1.40;99.90
2993;DHT22;1506;48.932;9.478;2023-02-22T03:16:51;1.70;99.90
2993;DHT22;1506;48.932;9.478;2023-02-22T03:19:49;1.80;99.90
2993;DHT22;1506;48.932;9.478;2023-02-22T03:22:42;1.90;99.90
2993;DHT22;1506;48.932;9.478;2023-02-22T03:25:39;1.80;99.90
2993;DHT22;1506;48.932;9.478;2023-02-22T03:28:11;1.90;99.90
2993;DHT22;1506;48.932;9.478;2023-02-22T03:30:45;2.00;99.90
2993;DHT22;1506;48.932;9.478;2023-02-22T03:33:24;2.00;99.90
2993;DHT22;1506;48.932;9.478;2023-02-22T03:36:10;2.10;99.90
2993;DHT22;1506;48.932;9.478;2023-02-22T03:38:40;2.10;99.90
2993;DHT22;1506;48.932;9.478;2023-02-22T03:41:14;2.00;99.90
2993;DHT22;1506;48.932;9.478;2023-02-22T03:43:47;1.90;99.90
2993;DHT22;1506;48.932;9.478;2023-02-22T03:46:17;1.90;99.90
2993;DHT22;1506;48.932;9.478;2023-02-22T03:51:30;1.90;99.90
2993;DHT22;1506;48.932;9.478;2023-02-22T03:53:59;2.00;99.90
2993;DHT22;1506;48.932;9.478;2023-02-22T03:56:41;1.90;99.90
2993;DHT22;1506;48.932;9.478;2023-02-22T03:59:13;2.00;99.90
2993;DHT22;1506;48.932;9.478;2023-02-22T04:01:40;2.00;99.90
2993;DHT22;1506;48.932;9.478;2023-02-22T04:04:07;2.10;99.90
2993;DHT22;1506;48.932;9.478;2023-02-22T04:06:36;2.20;99.90
2993;DHT22;1506;48.932;9.478;2023-02-22T04:09:03;2.10;99.90
2993;DHT22;1506;48.932;9.478;2023-02-22T04:11:31;2.00;99.90
2993;DHT22;1506;48.932;9.478;2023-02-22T04:13:58;2.10;99.90
2993;DHT22;1506;48.932;9.478;2023-02-22T04:16:26;2.00;99.90
2993;DHT22;1506;48.932;9.478;2023-02-22T04:18:54;1.90;99.90
2993;DHT22;1506;48.932;9.478;2023-02-22T04:21:21;1.90;99.90
2993;DHT22;1506;48.932;9.478;2023-02-22T04:23:49;1.90;99.90
2993;DHT22;1506;48.932;9.478;2023-02-22T04:26:17;1.90;99.90
2993;DHT22;1506;48.932;9.478;2023-02-22T04:28:49;2.00;99.90
2993;DHT22;1506;48.932;9.478;2023-02-22T04:31:18;1.90;99.90
2993;DHT22;1506;48.932;9.478;2023-02-22T04:33:45;1.80;99.90
2993;DHT22;1506;48.932;9.478;2023-02-22T04:36:16;1.90;99.90
2993;DHT22;1506;48.932;9.478;2023-02-22T04:38:44;1.90;99.90
2993;DHT22;1506;48.932;9.478;2023-02-22T04:41:12;1.80;99.90
2993;DHT22;1506;48.932;9.478;2023-02-22T04:43:40;1.70;99.90
2993;DHT22;1506;48.932;9.478;2023-02-22T04:48:42;1.50;99.90
2993;DHT22;1506;48.932;9.478;2023-02-22T04:51:09;1.50;99.90
2993;DHT22;1506;48.932;9.478;2023-02-22T04:53:40;1.40;99.90
2993;DHT22;1506;48.932;9.478;2023-02-22T04:56:07;1.40;99.90
2993;DHT22;1506;48.932;9.478;2023-02-22T04:58:34;1.50;99.90
2993;DHT22;1506;48.932;9.478;2023-02-22T05:01:01;1.40;99.90
2993;DHT22;1506;48.932;9.478;2023-02-22T05:03:29;1.50;99.90
2993;DHT22;1506;48.932;9.478;2023-02-22T05:05:56;1.30;99.90
2993;DHT22;1506;48.932;9.478;2023-02-22T05:08:23;1.40;99.90
2993;DHT22;1506;48.932;9.478;2023-02-22T05:10:50;1.30;99.90
2993;DHT22;1506;48.932;9.478;2023-02-22T05:13:17;1.40;99.90
2993;DHT22;1506;48.932;9.478;2023-02-22T05:15:44;1.40;99.90
2993;DHT22;1506;48.932;9.478;2023-02-22T05:18:11;1.40;99.90
2993;DHT22;1506;48.932;9.478;2023-02-22T05:20:38;1.50;99.90
2993;DHT22;1506;48.932;9.478;2023-02-22T05:23:05;1.50;99.90
2993;DHT22;1506;48.932;9.478;2023-02-22T05:25:32;1.40;99.90
2993;DHT22;1506;48.932;9.478;2023-02-22T05:28:02;1.30;99.90
2993;DHT22;1506;48.932;9.478;2023-02-22T05:30:34;1.20;99.90
2993;DHT22;1506;48.932;9.478;2023-02-22T05:33:01;1.30;99.90
2993;DHT22;1506;48.932;9.478;2023-02-22T05:35:29;1.30;99.90
2993;DHT22;1506;48.932;9.478;2023-02-22T05:37:56;1.20;99.90
2993;DHT22;1506;48.932;9.478;2023-02-22T05:40:25;1.30;99.90
2993;DHT22;1506;48.932;9.478;2023-02-22T05:42:53;1.30;99.90
2993;DHT22;1506;48.932;9.478;2023-02-22T05:45:22;1.30;99.90
2993;DHT22;1506;48.932;9.478;2023-02-22T05:47:53;1.40;99.90
2993;DHT22;1506;48.932;9.478;2023-02-22T05:50:20;1.50;99.90
2993;DHT22;1506;48.932;9.478;2023-02-22T05:52:48;1.30;99.90
2993;DHT22;1506;48.932;9.478;2023-02-22T05:55:17;1.50;99.90
2993;DHT22;1506;48.932;9.478;2023-02-22T05:57:46;1.40;99.90
2993;DHT22;1506;48.932;9.478;2023-02-22T06:00:25;1.30;99.90
2993;DHT22;1506;48.932;9.478;2023-02-22T06:02:58;1.20;99.90
2993;DHT22;1506;48.932;9.478;2023-02-22T06:05:27;1.10;99.90
2993;DHT22;1506;48.932;9.478;2023-02-22T06:07:56;1.20;99.90
2993;DHT22;1506;48.932;9.478;2023-02-22T06:10:25;1.10;99.90
2993;DHT22;1506;48.932;9.478;2023-02-22T06:12:53;1.20;99.90
2993;DHT22;1506;48.932;9.478;2023-02-22T06:15:22;1.30;99.90
2993;DHT22;1506;48.932;9.478;2023-02-22T06:17:50;1.30;99.90
2993;DHT22;1506;48.932;9.478;2023-02-22T06:20:20;1.30;99.90
2993;DHT22;1506;48.932;9.478;2023-02-22T06:22:50;1.20;99.90
2993;DHT22;1506;48.932;9.478;2023-02-22T06:25:20;1.40;99.90
2993;DHT22;1506;48.932;9.478;2023-02-22T06:27:50;1.40;99.90
2993;DHT22;1506;48.932;9.478;2023-02-22T06:30:19;1.50;99.90
2993;DHT22;1506;48.932;9.478;2023-02-22T06:32:48;1.50;99.90
2993;DHT22;1506;48.932;9.478;2023-02-22T06:35:16;1.60;99.90
2993;DHT22;1506;48.932;9.478;2023-02-22T06:37:43;1.70;99.90
2993;DHT22;1506;48.932;9.478;2023-02-22T06:40:11;1.90;99.90
2993;DHT22;1506;48.932;9.478;2023-02-22T06:42:39;1.90;99.90
2993;DHT22;1506;48.932;9.478;2023-02-22T06:45:07;2.10;99.90
2993;DHT22;1506;48.932;9.478;2023-02-22T06:47:39;2.10;99.90
2993;DHT22;1506;48.932;9.478;2023-02-22T06:50:19;2.10;99.90
2993;DHT22;1506;48.932;9.478;2023-02-22T06:52:56;2.20;99.90
2993;DHT22;1506;48.932;9.478;2023-02-22T06:55:27;2.10;99.90
2993;DHT22;1506;48.932;9.478;2023-02-22T06:57:55;2.20;99.90
2993;DHT22;1506;48.932;9.478;2023-02-22T07:00:23;2.30;99.90
2993;DHT22;1506;48.932;9.478;2023-02-22T07:02:52;2.30;99.90
2993;DHT22;1506;48.932;9.478;2023-02-22T07:05:21;2.30;99.90
2993;DHT22;1506;48.932;9.478;2023-02-22T07:07:51;2.50;99.90
2993;DHT22;1506;48.932;9.478;2023-02-22T07:10:23;2.30;99.90
2993;DHT22;1506;48.932;9.478;2023-02-22T07:12:54;2.30;99.90
2993;DHT22;1506;48.932;9.478;2023-02-22T07:15:23;2.30;99.90
2993;DHT22;1506;48.932;9.478;2023-02-22T07:17:52;2.40;99.90
2993;DHT22;1506;48.932;9.478;2023-02-22T07:20:20;2.40;99.90
2993;DHT22;1506;48.932;9.478;2023-02-22T07:22:48;2.50;98.10
2993;DHT22;1506;48.932;9.478;2023-02-22T07:25:15;2.60;97.70
2993;DHT22;1506;48.932;9.478;2023-02-22T07:27:43;2.70;99.90
2993;DHT22;1506;48.932;9.478;2023-02-22T07:30:31;2.80;97.10
2993;DHT22;1506;48.932;9.478;2023-02-22T07:33:02;2.90;88.90
2993;DHT22;1506;48.932;9.478;2023-02-22T07:35:46;3.10;90.30
2993;DHT22;1506;48.932;9.478;2023-02-22T07:38:16;3.40;99.90
2993;DHT22;1506;48.932;9.478;2023-02-22T07:40:44;3.50;54.80
2993;DHT22;1506;48.932;9.478;2023-02-22T07:43:28;3.80;77.70
2993;DHT22;1506;48.932;9.478;2023-02-22T07:45:59;4.20;50.60
2993;DHT22;1506;48.932;9.478;2023-02-22T07:48:29;4.80;6.70
2993;DHT22;1506;48.932;9.478;2023-02-22T07:50:58;5.10;1.00
2993;DHT22;1506;48.932;9.478;2023-02-22T07:53:27;5.30;1.00
2993;DHT22;1506;48.932;9.478;2023-02-22T07:55:56;5.60;1.00
2993;DHT22;1506;48.932;9.478;2023-02-22T07:58:26;6.00;1.00
2993;DHT22;1506;48.932;9.478;2023-02-22T08:00:54;6.30;99.90
2993;DHT22;1506;48.932;9.478;2023-02-22T08:03:23;6.50;1.00
2993;DHT22;1506;48.932;9.478;2023-02-22T08:05:53;6.70;99.90
2993;DHT22;1506;48.932;9.478;2023-02-22T08:08:22;6.90;99.90
2993;DHT22;1506;48.932;9.478;2023-02-22T08:10:50;7.30;1.00
2993;DHT22;1506;48.932;9.478;2023-02-22T08:13:18;7.60;40.90
2993;DHT22;1506;48.932;9.478;2023-02-22T08:15:45;7.60;1.00
2993;DHT22;1506;48.932;9.478;2023-02-22T08:18:17;7.80;1.00
2993;DHT22;1506;48.932;9.478;2023-02-22T08:20:46;7.90;99.90
2993;DHT22;1506;48.932;9.478;2023-02-22T08:23:15;8.00;96.90
2993;DHT22;1506;48.932;9.478;2023-02-22T08:25:44;8.30;99.90
2993;DHT22;1506;48.932;9.478;2023-02-22T08:28:14;8.50;1.00
2993;DHT22;1506;48.932;9.478;2023-02-22T08:30:43;8.60;99.90
2993;DHT22;1506;48.932;9.478;2023-02-22T08:33:11;8.90;1.00
2993;DHT22;1506;48.932;9.478;2023-02-22T08:35:41;8.70;1.00
2993;DHT22;1506;48.932;9.478;2023-02-22T08:38:16;8.60;1.00
2993;DHT22;1506;48.932;9.478;2023-02-22T08:40:47;8.50;50.20
2993;DHT22;1506;48.932;9.478;2023-02-22T08:43:15;8.30;1.00
2993;DHT22;1506;48.932;9.478;2023-02-22T08:45:43;8.10;1.00
2993;DHT22;1506;48.932;9.478;2023-02-22T08:48:12;7.80;31.40
2993;DHT22;1506;48.932;9.478;2023-02-22T08:50:39;8.20;1.00
2993;DHT22;1506;48.932;9.478;2023-02-22T08:53:09;8.40;1.00
2993;DHT22;1506;48.932;9.478;2023-02-22T08:55:38;8.30;1.00
2993;DHT22;1506;48.932;9.478;2023-02-22T08:58:05;9.00;46.80
2993;DHT22;1506;48.932;9.478;2023-02-22T09:00:37;9.60;1.00
2993;DHT22;1506;48.932;9.478;2023-02-22T09:03:07;10.20;1.00
2993;DHT22;1506;48.932;9.478;2023-02-22T09:05:36;10.60;22.90
2993;DHT22;1506;48.932;9.478;2023-02-22T09:08:03;11.10;99.90
2993;DHT22;1506;48.932;9.478;2023-02-22T09:10:32;11.50;1.00
2993;DHT22;1506;48.932;9.478;2023-02-22T09:13:00;11.70;6.00
2993;DHT22;1506;48.932;9.478;2023-02-22T09:15:31;12.00;99.90
2993;DHT22;1506;48.932;9.478;2023-02-22T09:17:59;12.50;1.00
2993;DHT22;1506;48.932;9.478;2023-02-22T09:20:27;12.60;1.00
2993;DHT22;1506;48.932;9.478;2023-02-22T09:22:55;12.90;1.00
2993;DHT22;1506;48.932;9.478;2023-02-22T09:25:22;13.10;1.00
2993;DHT22;1506;48.932;9.478;2023-02-22T09:27:53;13.40;99.90
2993;DHT22;1506;48.932;9.478;2023-02-22T09:30:25;13.60;1.00
2993;DHT22;1506;48.932;9.478;2023-02-22T09:33:04;14.10;1.00
2993;DHT22;1506;48.932;9.478;2023-02-22T09:35:36;14.40;99.90
2993;DHT22;1506;48.932;9.478;2023-02-22T09:38:09;14.40;99.90
2993;DHT22;1506;48.932;9.478;2023-02-22T09:40:42;14.50;99.90
2993;DHT22;1506;48.932;9.478;2023-02-22T09:46:12;15.30;6.40
2993;DHT22;1506;48.932;9.478;2023-02-22T09:52:13;15.60;1.00
2993;DHT22;1506;48.932;9.478;2023-02-22T09:54:50;16.00;1.00
2993;DHT22;1506;48.932;9.478;2023-02-22T09:57:32;16.10;1.00
2993;DHT22;1506;48.932;9.478;2023-02-22T10:00:19;16.30;1.00
2993;DHT22;1506;48.932;9.478;2023-02-22T10:03:21;16.00;1.00
2993;DHT22;1506;48.932;9.478;2023-02-22T10:06:03;15.90;1.00
2993;DHT22;1506;48.932;9.478;2023-02-22T10:08:36;15.90;1.00
2993;DHT22;1506;48.932;9.478;2023-02-22T10:17:17;15.80;1.00
2993;DHT22;1506;48.932;9.478;2023-02-22T10:19:57;16.10;1.00
2993;DHT22;1506;48.932;9.478;2023-02-22T10:25:13;16.80;1.00
2993;DHT22;1506;48.932;9.478;2023-02-22T10:30:36;16.60;1.00
2993;DHT22;1506;48.932;9.478;2023-02-22T10:33:16;16.20;1.00
2993;DHT22;1506;48.932;9.478;2023-02-22T10:35:51;16.10;1.00
2993;DHT22;1506;48.932;9.478;2023-02-22T10:38:20;16.80;1.00
2993;DHT22;1506;48.932;9.478;2023-02-22T10:41:18;17.00;99.90
2993;DHT22;1506;48.932;9.478;2023-02-22T10:43:49;16.80;99.90
2993;DHT22;1506;48.932;9.478;2023-02-22T10:46:19;17.00;99.90
2993;DHT22;1506;48.932;9.478;2023-02-22T10:48:51;17.00;1.00
2993;DHT22;1506;48.932;9.478;2023-02-22T10:51:20;17.00;1.00
2993;DHT22;1506;48.932;9.478;2023-02-22T10:56:53;18.10;1.00
2993;DHT22;1506;48.932;9.478;2023-02-22T10:59:33;18.30;1.00
2993;DHT22;1506;48.932;9.478;2023-02-22T11:02:22;18.20;1.00
2993;DHT22;1506;48.932;9.478;2023-02-22T11:04:55;18.40;1.00
2993;DHT22;1506;48.932;9.478;2023-02-22T11:09:59;18.80;1.00
2993;DHT22;1506;48.932;9.478;2023-02-22T11:15:26;19.00;1.00
2993;DHT22;1506;48.932;9.478;2023-02-22T11:17:56;19.70;1.00
2993;DHT22;1506;48.932;9.478;2023-02-22T11:23:04;20.40;1.00
2993;DHT22;1506;48.932;9.478;2023-02-22T11:25:37;20.60;1.00
2993;DHT22;1506;48.932;9.478;2023-02-22T11:28:26;20.30;1.00
2993;DHT22;1506;48.932;9.478;2023-02-22T11:31:09;19.70;1.00
2993;DHT22;1506;48.932;9.478;2023-02-22T11:36:38;19.40;1.00
2993;DHT22;1506;48.932;9.478;2023-02-22T11:41:54;19.00;1.00
2993;DHT22;1506;48.932;9.478;2023-02-22T11:44:30;18.80;1.00
2993;DHT22;1506;48.932;9.478;2023-02-22T11:47:00;18.60;1.00
2993;DHT22;1506;48.932;9.478;2023-02-22T11:49:37;18.60;1.00
2993;DHT22;1506;48.932;9.478;2023-02-22T11:52:26;19.20;1.00
2993;DHT22;1506;48.932;9.478;2023-02-22T11:55:03;19.20;1.00
2993;DHT22;1506;48.932;9.478;2023-02-22T11:57:47;19.40;1.00
2993;DHT22;1506;48.932;9.478;2023-02-22T12:00:22;19.30;1.00
2993;DHT22;1506;48.932;9.478;2023-02-22T12:09:14;18.20;1.00
2993;DHT22;1506;48.932;9.478;2023-02-22T12:15:28;18.20;1.00
2993;DHT22;1506;48.932;9.478;2023-02-22T12:21:01;18.80;1.00
2993;DHT22;1506;48.932;9.478;2023-02-22T12:26:39;19.30;1.00
2993;DHT22;1506;48.932;9.478;2023-02-22T12:29:25;19.30;1.00
2993;DHT22;1506;48.932;9.478;2023-02-22T12:32:44;19.20;1.00
2993;DHT22;1506;48.932;9.478;2023-02-22T12:38:03;18.20;99.90
2993;DHT22;1506;48.932;9.478;2023-02-22T12:41:02;17.90;1.00
2993;DHT22;1506;48.932;9.478;2023-02-22T12:46:19;17.60;1.00
2993;DHT22;1506;48.932;9.478;2023-02-22T12:55:25;16.90;1.00
2993;DHT22;1506;48.932;9.478;2023-02-22T13:01:19;16.70;1.00
2993;DHT22;1506;48.932;9.478;2023-02-22T13:03:47;16.50;1.00
2993;DHT22;1506;48.932;9.478;2023-02-22T13:09:48;16.40;1.00
2993;DHT22;1506;48.932;9.478;2023-02-22T13:16:12;16.30;1.00
2993;DHT22;1506;48.932;9.478;2023-02-22T13:19:01;16.30;1.00
2993;DHT22;1506;48.932;9.478;2023-02-22T13:27:03;16.20;1.00
2993;DHT22;1506;48.932;9.478;2023-02-22T13:29:38;16.30;1.00
2993;DHT22;1506;48.932;9.478;2023-02-22T13:38:36;16.50;1.00
2993;DHT22;1506;48.932;9.478;2023-02-22T13:53:26;18.40;1.00
2993;DHT22;1506;48.932;9.478;2023-02-22T13:55:58;18.50;1.00
2993;DHT22;1506;48.932;9.478;2023-02-22T13:58:26;18.70;1.00
2993;DHT22;1506;48.932;9.478;2023-02-22T14:00:56;18.70;1.00
2993;DHT22;1506;48.932;9.478;2023-02-22T14:03:32;18.60;1.00
2993;DHT22;1506;48.932;9.478;2023-02-22T14:06:04;18.10;1.00
2993;DHT22;1506;48.932;9.478;2023-02-22T14:16:25;17.50;1.00
2993;DHT22;1506;48.932;9.478;2023-02-22T14:22:00;17.30;1.00
2993;DHT22;1506;48.932;9.478;2023-02-22T14:24:45;17.30;1.00
2993;DHT22;1506;48.932;9.478;2023-02-22T14:27:14;17.30;1.00
2993;DHT22;1506;48.932;9.478;2023-02-22T14:29:51;17.40;1.00
2993;DHT22;1506;48.932;9.478;2023-02-22T14:32:29;17.50;1.00
2993;DHT22;1506;48.932;9.478;2023-02-22T14:35:05;17.60;1.00
2993;DHT22;1506;48.932;9.478;2023-02-22T14:37:55;17.50;1.00
2993;DHT22;1506;48.932;9.478;2023-02-22T14:40:30;17.40;1.00
2993;DHT22;1506;48.932;9.478;2023-02-22T14:43:15;17.30;1.00
2993;DHT22;1506;48.932;9.478;2023-02-22T14:45:51;17.20;1.00
2993;DHT22;1506;48.932;9.478;2023-02-22T14:51:20;17.00;1.00
2993;DHT22;1506;48.932;9.478;2023-02-22T14:54:00;16.80;1.00
2993;DHT22;1506;48.932;9.478;2023-02-22T14:56:39;16.70;1.00
2993;DHT22;1506;48.932;9.478;2023-02-22T14:59:17;16.60;1.00
2993;DHT22;1506;48.932;9.478;2023-02-22T15:01:46;16.50;1.00
2993;DHT22;1506;48.932;9.478;2023-02-22T15:04:29;16.40;1.00
2993;DHT22;1506;48.932;9.478;2023-02-22T15:06:58;16.30;1.00
2993;DHT22;1506;48.932;9.478;2023-02-22T15:09:30;16.20;1.00
2993;DHT22;1506;48.932;9.478;2023-02-22T15:14:32;16.00;1.00
2993;DHT22;1506;48.932;9.478;2023-02-22T15:17:09;16.00;1.00
2993;DHT22;1506;48.932;9.478;2023-02-22T15:19:41;15.90;1.00
2993;DHT22;1506;48.932;9.478;2023-02-22T15:22:24;16.00;1.00
2993;DHT22;1506;48.932;9.478;2023-02-22T15:24:58;16.00;1.00
2993;DHT22;1506;48.932;9.478;2023-02-22T15:27:27;15.80;1.00
2993;DHT22;1506;48.932;9.478;2023-02-22T15:29:59;15.70;99.90
2993;DHT22;1506;48.932;9.478;2023-02-22T15:32:37;15.50;99.90
2993;DHT22;1506;48.932;9.478;2023-02-22T15:35:29;15.30;99.90
2993;DHT22;1506;48.932;9.478;2023-02-22T15:40:29;15.00;99.90
2993;DHT22;1506;48.932;9.478;2023-02-22T15:43:01;14.90;99.90
2993;DHT22;1506;48.932;9.478;2023-02-22T15:45:30;14.80;99.90
2993;DHT22;1506;48.932;9.478;2023-02-22T15:50:33;14.70;1.00
2993;DHT22;1506;48.932;9.478;2023-02-22T15:55:36;14.60;1.00
2993;DHT22;1506;48.932;9.478;2023-02-22T16:01:02;14.40;1.00
2993;DHT22;1506;48.932;9.478;2023-02-22T16:03:37;14.40;1.00
2993;DHT22;1506;48.932;9.478;2023-02-22T16:09:10;14.10;1.00
2993;DHT22;1506;48.932;9.478;2023-02-22T16:14:48;13.80;1.00
2993;DHT22;1506;48.932;9.478;2023-02-22T16:17:37;13.80;1.00
2993;DHT22;1506;48.932;9.478;2023-02-22T16:22:50;13.60;57.30
2993;DHT22;1506;48.932;9.478;2023-02-22T16:27:49;13.60;99.90
2993;DHT22;1506;48.932;9.478;2023-02-22T16:32:55;13.50;99.90
2993;DHT22;1506;48.932;9.478;2023-02-22T16:35:27;13.40;99.90
2993;DHT22;1506;48.932;9.478;2023-02-22T16:38:06;13.30;99.90
2993;DHT22;1506;48.932;9.478;2023-02-22T16:43:21;13.10;99.90
2993;DHT22;1506;48.932;9.478;2023-02-22T16:45:49;13.00;1.00
2993;DHT22;1506;48.932;9.478;2023-02-22T16:48:21;12.90;1.00
